< Typhoon 198916 1989 Season Typhoon 198918 >
Typhoon 198917 (ROGER)
General InformationTrack Information on Google MapsDetailed Wind InformationList of All Images || Disaster Info.ResourceGoogle EarthGE AnimationAtom FeedGeoJSON
Detalied Best Track (Time Zone = UTC)
Year Month Day Hour Lat. Long. Pressure (hPa) Wind (kt) Class Image Chart
1989 8 23 18 26.2 123.2 1002 0 2 Image Chart
1989 8 24 00 26.0 123.5 1002 0 2 Image Chart
1989 8 24 06 25.8 123.8 1000 0 2 Image Chart
1989 8 24 12 25.7 124.2 1000 0 2 Image Chart
1989 8 24 18 25.5 124.5 1000 0 2 Image Chart
1989 8 25 00 25.3 125.0 998 0 2 Image Chart
1989 8 25 06 25.0 125.7 994 40 3 Image Chart
1989 8 25 12 25.0 127.3 994 40 3 Image Chart
1989 8 25 18 26.0 129.0 990 45 3 Image Chart
1989 8 26 00 27.5 130.3 985 50 4 Image Chart
1989 8 26 06 29.2 131.2 980 55 4 Image Chart
1989 8 26 12 30.5 132.0 980 55 4 Image Chart
1989 8 26 18 31.8 133.0 975 55 4 Image Chart
1989 8 27 00 33.4 134.1 975 55 4 Image Chart
1989 8 27 06 34.7 135.6 980 50 4 Image Chart
1989 8 27 12 37.3 137.7 985 50 4 Image Chart
1989 8 27 18 39.5 139.4 985 50 4 Image Chart
1989 8 28 00 42.0 141.0 984 50 4 Image Chart
1989 8 28 06 43.5 142.5 984 50 4 Image Chart
1989 8 28 12 45.5 144.5 982 0 6 Image Chart
1989 8 28 18 46.7 145.7 982 0 6 Image Chart
1989 8 29 00 47.7 147.0 980 0 6 Image Chart
1989 8 29 06 48.8 148.5 984 0 6 Image Chart
1989 8 29 12 49.5 150.0 988 0 6 Image Chart
1989 8 29 18 49.7 151.5 992 0 6 Image Chart
1989 8 30 00 49.5 153.0 994 0 6 Image Chart
1989 8 30 06 49.3 155.0 996 0 6 Image Chart
1989 8 30 12 49.0 157.0 1000 0 6 Image Chart
1989 8 30 18 48.5 160.0 1004 0 6 Image Chart
1989 8 31 00 48.0 163.0 1006 0 6 Image Chart
1989 8 31 06 47.5 166.0 1006 0 6 Image Chart
1989 8 31 12 47.0 169.0 1008 0 6 Image Chart
1989 8 31 18 46.5 170.0 1008 0 6 Image Chart
1989 9 1 00 45.5 172.0 1008 0 6 Image Chart
1989 9 1 06 44.0 175.0 1008 0 6 Image Chart
1989 9 1 12 43.0 179.0 1008 0 6 Image Chart
1989 9 1 18 41.5 182.5 1008 0 6 Image Chart
Japan Meteorological Agency Best Track Data | Correction Date : 1992-10-21
< Typhoon 198916 1989 Season Typhoon 198918 >

Help